Terminal Aerodrome Forecast
Issued by NWS

Home | Current Version | Previous Version | Text Only | Print | Product List | Glossary On
Versions: 1 2 3 4 5 6 7 8 9 10 11 12 13 14 15 16 17 18 19 20 21 22 23
000
FTUS43 KIND 281400 AAA
TAFBMG
TAF AMD
KBMG 281418Z 2814/2912 33008KT P6SM OVC020
     FM281600 32010KT P6SM BKN025
     FM281800 34012G18KT P6SM BKN040
     FM290100 34004KT P6SM SKC=

USA.gov is the U.S. government's official web portal to all federal, state and local government web resources and services.